If you wish to contribute or participate in the discussions about articles you are invited to join SKYbrary as a registered user

EBCI

From SKYbrary Wiki

Jump to: navigation, search
Airport
Code EBCI
Name Brussels South Charleroi Airport
Region Europe
Territory Belgium
Location Charleroi
Elevation

187.147202 m614 ft

Coordinates 50° 27' 46" N, 4° 27' 42" E
All Airports
in EB
EBAW, EBBR, EBCI, EBFS, EBLG, EBOS
Runways
Designator Length Width Surface
7/25 2550 m8,366.142 ft 45 m147.638 ft ASP


METAR
Observation EBCI 230720Z 06005KT 030V100 7000 NSC 20/16 Q1018 NOSIG
Station Charleroi / Gosselies
Elevation 192 metres
Date/Time 23 July 2014 07:20:00
Wind direction 60°
Wind speed 05 kts
Clouds nil significant cloud
Clouds code NSC
Temperature 20°C
Dew point 16°C
Humidity 77%
QNH 1018 hPa
Weather condition n/a


Charleroi Brussels South Airport

ICAO: EBCI IATA: CRL

Description

Charleroi airport is an international airport located in Gosselies, 46 km24.838 nm
46,000 m
150,918.635 ft
south of Brussels.

Climatology

Temperate Marine climate/Oceanic climate (Köppen climate classification Cfb). Moderately cool summer and comparatively warm winter with a temperature range of only 14°C287.15 K
57.2 °F
516.87 °R
. Prevailing south-westerly winds from the Atlantic Ocean.

Maps

Terrain

Loading map...

Airport Layout

Loading map...


Accidents & Serious Incidents at or in vicinity of EBCI

None on SKYbrary

Personal tools